createdAt,value
2017-09-10T00:01:12.583Z,14.40
2017-09-10T00:03:40.042Z,14.40
2017-09-10T00:06:07.582Z,14.40
2017-09-10T00:08:35.033Z,14.30
2017-09-10T00:11:02.604Z,14.30
2017-09-10T00:13:30.078Z,14.30
2017-09-10T00:15:57.573Z,14.20
2017-09-10T00:18:25.801Z,14.20
2017-09-10T00:20:54.289Z,14.20
2017-09-10T00:23:21.779Z,14.20
2017-09-10T00:25:49.999Z,14.10
2017-09-10T00:28:17.961Z,14.10
2017-09-10T00:30:45.460Z,14.10
2017-09-10T00:33:13.140Z,14.10
2017-09-10T00:35:40.658Z,14.00
2017-09-10T00:38:08.128Z,14.00
2017-09-10T00:40:35.628Z,14.00
2017-09-10T00:43:03.855Z,14.00
2017-09-10T00:45:31.314Z,14.00
2017-09-10T00:47:58.794Z,14.00
2017-09-10T00:50:26.321Z,14.00
2017-09-10T00:52:53.817Z,13.90
2017-09-10T00:55:21.301Z,13.90
2017-09-10T00:57:48.777Z,13.90
2017-09-10T01:00:16.243Z,13.90
2017-09-10T01:02:43.765Z,13.80
2017-09-10T01:05:11.233Z,13.80
2017-09-10T01:07:38.701Z,13.70
2017-09-10T01:10:06.190Z,13.80
2017-09-10T01:12:33.642Z,13.70
2017-09-10T01:15:01.865Z,13.70
2017-09-10T01:17:29.339Z,13.70
2017-09-10T01:19:57.645Z,13.60
2017-09-10T01:22:25.916Z,13.60
2017-09-10T01:24:53.377Z,13.60
2017-09-10T01:27:20.829Z,13.60
2017-09-10T01:29:49.097Z,13.50
2017-09-10T01:32:17.322Z,13.50
2017-09-10T01:34:44.777Z,13.50
2017-09-10T01:37:12.250Z,13.50
2017-09-10T01:39:39.709Z,13.50
2017-09-10T01:42:07.201Z,13.50
2017-09-10T01:44:34.894Z,13.50
2017-09-10T01:47:02.390Z,13.40
2017-09-10T01:49:29.845Z,13.40
2017-09-10T01:51:57.310Z,13.40
2017-09-10T01:54:24.798Z,13.30
2017-09-10T01:56:52.282Z,13.30
2017-09-10T01:59:19.734Z,13.30
2017-09-10T02:01:47.990Z,13.30
2017-09-10T02:04:15.470Z,13.20
2017-09-10T02:06:42.925Z,13.20
2017-09-10T02:09:10.394Z,13.20
2017-09-10T02:11:37.850Z,13.20
2017-09-10T02:14:05.321Z,13.20
2017-09-10T02:16:32.774Z,13.20
2017-09-10T02:19:00.333Z,13.10
2017-09-10T02:21:27.789Z,13.10
2017-09-10T02:23:56.037Z,13.00
2017-09-10T02:26:23.503Z,13.10
2017-09-10T02:28:50.966Z,13.00
2017-09-10T02:31:19.222Z,13.00
2017-09-10T02:33:47.454Z,13.00
2017-09-10T02:36:14.945Z,13.00
2017-09-10T02:38:43.166Z,13.00
2017-09-10T02:41:10.630Z,12.90
2017-09-10T02:43:38.866Z,12.90
2017-09-10T02:46:06.362Z,12.90
2017-09-10T02:48:34.649Z,12.90
2017-09-10T02:51:02.106Z,12.90
2017-09-10T02:53:29.593Z,12.90
2017-09-10T02:55:57.054Z,12.80
2017-09-10T02:58:24.514Z,12.80
2017-09-10T03:00:51.998Z,12.80
2017-09-10T03:03:19.458Z,12.80
2017-09-10T03:05:46.918Z,12.80
2017-09-10T03:08:14.405Z,12.70
2017-09-10T03:10:41.894Z,12.70
2017-09-10T03:13:09.353Z,12.70
2017-09-10T03:15:36.818Z,12.70
2017-09-10T03:18:04.309Z,12.70
2017-09-10T03:20:32.541Z,12.60
2017-09-10T03:22:59.998Z,12.70
2017-09-10T03:25:27.478Z,12.60
2017-09-10T03:27:54.937Z,12.60
2017-09-10T03:30:22.438Z,12.60
2017-09-10T03:32:50.670Z,12.50
2017-09-10T03:35:18.138Z,12.50
2017-09-10T03:37:46.385Z,12.50
2017-09-10T03:40:13.910Z,12.50
2017-09-10T03:42:41.392Z,12.50
2017-09-10T03:45:08.873Z,12.50
2017-09-10T03:47:36.326Z,12.50
2017-09-10T03:50:03.829Z,12.50
2017-09-10T03:52:31.289Z,12.50
2017-09-10T03:54:58.817Z,12.40
2017-09-10T03:57:26.318Z,12.40
2017-09-10T03:59:54.545Z,12.40
2017-09-10T04:02:22.009Z,12.40
2017-09-10T04:04:50.258Z,12.40
2017-09-10T04:07:17.709Z,12.30
2017-09-10T04:09:45.297Z,12.40
2017-09-10T04:12:12.742Z,12.30
2017-09-10T04:14:40.198Z,12.30
2017-09-10T04:17:07.678Z,12.30
2017-09-10T04:19:35.804Z,12.30
2017-09-10T04:22:03.302Z,12.30
2017-09-10T04:24:30.793Z,12.30
2017-09-10T04:26:58.261Z,12.30
2017-09-10T04:29:26.486Z,12.20
2017-09-10T04:31:53.962Z,12.20
2017-09-10T04:34:21.426Z,12.20
2017-09-10T04:36:48.917Z,12.20
2017-09-10T04:39:16.371Z,12.20
2017-09-10T04:41:44.593Z,12.10
2017-09-10T04:44:12.075Z,12.10
2017-09-10T04:46:40.305Z,12.10
2017-09-10T04:49:07.788Z,12.10
2017-09-10T04:51:35.250Z,12.10
2017-09-10T04:54:02.701Z,12.10
2017-09-10T04:56:30.192Z,12.00
2017-09-10T04:58:58.484Z,12.00
2017-09-10T05:01:25.937Z,12.00
2017-09-10T05:03:53.418Z,12.00
2017-09-10T05:06:20.873Z,12.00
2017-09-10T05:08:49.170Z,12.00
2017-09-10T05:11:16.626Z,12.00
2017-09-10T05:13:44.077Z,12.00
2017-09-10T05:16:12.325Z,12.00
2017-09-10T05:18:39.777Z,12.00
2017-09-10T05:21:07.997Z,12.00
2017-09-10T05:23:35.474Z,12.00
2017-09-10T05:26:02.926Z,12.00
2017-09-10T05:28:30.444Z,12.00
2017-09-10T05:30:57.909Z,12.00
2017-09-10T05:33:25.374Z,12.00
2017-09-10T05:35:53.633Z,12.00
2017-09-10T05:38:21.089Z,12.00
2017-09-10T05:40:48.544Z,12.10
2017-09-10T05:43:16.024Z,12.10
2017-09-10T05:45:43.517Z,12.10
2017-09-10T05:48:10.977Z,12.10
2017-09-10T05:50:38.454Z,12.10
2017-09-10T05:53:05.917Z,12.10
2017-09-10T05:55:33.405Z,12.10
2017-09-10T05:58:01.637Z,12.20
2017-09-10T06:00:29.099Z,12.20
2017-09-10T06:02:56.585Z,12.20
2017-09-10T06:05:24.067Z,12.30
2017-09-10T06:07:52.325Z,12.40
2017-09-10T06:10:19.781Z,12.30
2017-09-10T06:12:47.278Z,12.40
2017-09-10T06:15:14.729Z,12.40
2017-09-10T06:17:42.178Z,12.50
2017-09-10T06:20:09.662Z,12.50
2017-09-10T06:22:37.121Z,12.50
2017-09-10T06:25:04.607Z,12.60
2017-09-10T06:27:32.090Z,12.60
2017-09-10T06:29:59.558Z,12.70
2017-09-10T06:32:27.794Z,12.80
2017-09-10T06:34:55.286Z,12.80
2017-09-10T06:37:22.742Z,12.90
2017-09-10T06:39:50.210Z,12.90
2017-09-10T06:42:17.700Z,13.00
2017-09-10T06:44:45.170Z,13.00
2017-09-10T06:47:12.626Z,13.10
2017-09-10T06:49:40.100Z,13.20
2017-09-10T06:52:07.559Z,13.20
2017-09-10T06:54:35.033Z,13.20
2017-09-10T06:57:02.481Z,13.30
2017-09-10T06:59:29.981Z,13.30
2017-09-10T07:01:57.444Z,13.30
2017-09-10T07:04:24.898Z,13.40
2017-09-10T07:06:52.369Z,13.40
2017-09-10T07:09:19.817Z,13.40
2017-09-10T07:11:47.309Z,13.50
2017-09-10T07:14:14.777Z,13.60
2017-09-10T07:16:43.305Z,13.60
2017-09-10T07:19:12.207Z,13.70
2017-09-10T07:21:39.760Z,13.60
2017-09-10T07:24:08.749Z,13.80
2017-09-10T07:26:36.657Z,13.70
2017-09-10T07:29:04.455Z,13.80
2017-09-10T07:31:32.944Z,13.80
2017-09-10T07:34:00.414Z,13.80
2017-09-10T07:36:28.198Z,13.90
2017-09-10T07:38:57.157Z,14.00
2017-09-10T07:41:25.465Z,14.00
2017-09-10T07:43:53.009Z,14.00
2017-09-10T07:46:20.702Z,14.00
2017-09-10T07:48:48.280Z,14.00
2017-09-10T07:51:16.041Z,14.10
2017-09-10T07:53:43.570Z,14.10
2017-09-10T07:56:11.294Z,14.20
2017-09-10T07:58:39.668Z,14.30
2017-09-10T08:01:07.600Z,14.30
2017-09-10T08:03:36.047Z,14.40
2017-09-10T08:06:03.566Z,14.40
2017-09-10T08:08:31.036Z,14.40
2017-09-10T08:10:58.508Z,14.50
2017-09-10T08:13:27.301Z,14.60
2017-09-10T08:15:55.438Z,14.60
2017-09-10T08:18:23.301Z,14.60
2017-09-10T08:20:51.810Z,14.80
2017-09-10T08:23:19.568Z,14.70
2017-09-10T08:25:47.482Z,14.80
2017-09-10T08:28:14.981Z,14.80
2017-09-10T08:30:42.601Z,14.90
2017-09-10T08:33:10.054Z,15.00
2017-09-10T08:35:37.529Z,15.00
2017-09-10T08:38:05.778Z,15.20
2017-09-10T08:40:33.250Z,15.10
2017-09-10T08:43:00.734Z,15.20
2017-09-10T08:45:28.221Z,15.40
2017-09-10T08:47:55.693Z,15.50
2017-09-10T08:50:23.319Z,15.50
2017-09-10T08:52:50.897Z,15.60
2017-09-10T08:55:18.405Z,15.60
2017-09-10T08:57:46.033Z,15.60
2017-09-10T09:00:13.583Z,15.60
2017-09-10T09:02:41.114Z,15.60
2017-09-10T09:05:08.725Z,15.60
2017-09-10T09:07:36.399Z,15.70
2017-09-10T09:10:03.871Z,15.80
2017-09-10T09:12:31.345Z,15.80
2017-09-10T09:14:58.813Z,16.00
2017-09-10T09:17:26.322Z,16.10
2017-09-10T09:19:53.789Z,16.20
2017-09-10T09:22:21.245Z,16.40
2017-09-10T09:24:48.736Z,16.60
2017-09-10T09:27:16.957Z,16.90
2017-09-10T09:29:44.445Z,16.80
2017-09-10T09:32:11.901Z,17.00
2017-09-10T09:34:39.358Z,17.10
2017-09-10T09:37:06.829Z,17.30
2017-09-10T09:39:34.318Z,17.40
2017-09-10T09:42:01.779Z,17.40
2017-09-10T09:44:29.225Z,17.50
2017-09-10T09:46:57.474Z,17.70
2017-09-10T09:49:24.939Z,17.60
2017-09-10T09:51:52.397Z,17.90
2017-09-10T09:54:19.885Z,18.10
2017-09-10T09:56:47.343Z,18.10
2017-09-10T09:59:14.793Z,18.10
2017-09-10T10:01:42.265Z,18.00
2017-09-10T10:04:09.741Z,17.80
2017-09-10T10:06:37.233Z,17.70
2017-09-10T10:09:04.689Z,17.80
2017-09-10T10:11:32.167Z,17.90
2017-09-10T10:13:59.634Z,17.90
2017-09-10T10:16:27.101Z,18.10
2017-09-10T10:18:54.653Z,18.20
2017-09-10T10:21:22.914Z,18.50
2017-09-10T10:23:50.371Z,18.50
2017-09-10T10:26:17.840Z,18.50
2017-09-10T10:28:46.118Z,18.70
2017-09-10T10:31:14.346Z,18.90
2017-09-10T10:33:41.798Z,18.90
2017-09-10T10:36:09.285Z,19.30
2017-09-10T10:38:37.506Z,19.40
2017-09-10T10:41:04.976Z,19.40
2017-09-10T10:43:32.436Z,19.40
2017-09-10T10:45:59.907Z,19.30
2017-09-10T10:48:27.430Z,19.10
2017-09-10T10:50:55.658Z,18.70
2017-09-10T10:53:23.129Z,18.70
2017-09-10T10:55:51.375Z,18.90
2017-09-10T10:58:18.830Z,18.90
2017-09-10T11:00:46.301Z,19.00
2017-09-10T11:03:13.768Z,19.20
2017-09-10T11:05:42.001Z,19.60
2017-09-10T11:08:09.483Z,19.60
2017-09-10T11:10:37.006Z,19.80
2017-09-10T11:13:04.481Z,19.90
2017-09-10T11:15:31.983Z,19.90
2017-09-10T11:18:00.259Z,19.80
2017-09-10T11:20:28.521Z,19.60
2017-09-10T11:22:56.254Z,19.60
2017-09-10T11:25:23.750Z,19.30
2017-09-10T11:27:51.876Z,19.10
2017-09-10T11:30:20.422Z,18.90
2017-09-10T11:32:47.920Z,18.80
2017-09-10T11:35:16.177Z,18.80
2017-09-10T11:37:43.644Z,18.80
2017-09-10T11:40:11.993Z,19.00
2017-09-10T11:42:39.722Z,19.00
2017-09-10T11:45:07.356Z,19.10
2017-09-10T11:47:34.830Z,19.30
2017-09-10T11:50:02.527Z,19.30
2017-09-10T11:52:30.807Z,19.30
2017-09-10T11:54:58.616Z,19.30
2017-09-10T11:57:26.566Z,19.30
2017-09-10T11:59:54.873Z,19.60
2017-09-10T12:02:23.159Z,19.60
2017-09-10T12:04:50.645Z,19.70
2017-09-10T12:07:18.091Z,19.80
2017-09-10T12:09:45.840Z,20.00
2017-09-10T12:12:13.812Z,20.30
2017-09-10T12:14:41.777Z,20.30
2017-09-10T12:17:09.800Z,20.30
2017-09-10T12:19:37.616Z,20.30
2017-09-10T12:22:06.037Z,20.30
2017-09-10T12:24:33.472Z,20.30
2017-09-10T12:27:00.925Z,20.30
2017-09-10T12:29:28.424Z,20.30
2017-09-10T12:31:56.673Z,20.50
2017-09-10T12:34:24.196Z,20.50
2017-09-10T12:36:51.732Z,20.70
2017-09-10T12:39:19.459Z,20.90
2017-09-10T12:41:46.950Z,20.90
2017-09-10T12:44:14.457Z,20.90
2017-09-10T12:46:42.012Z,20.90
2017-09-10T12:49:09.610Z,20.90
2017-09-10T12:51:37.074Z,20.80
2017-09-10T12:54:04.601Z,20.80
2017-09-10T12:56:32.097Z,20.90
2017-09-10T12:58:59.585Z,20.90
2017-09-10T13:01:27.114Z,21.00
2017-09-10T13:03:54.651Z,21.00
2017-09-10T13:06:22.159Z,21.10
2017-09-10T13:08:49.770Z,21.30
2017-09-10T13:11:17.240Z,21.50
2017-09-10T13:13:44.758Z,21.50
2017-09-10T13:16:12.378Z,21.50
2017-09-10T13:18:40.610Z,21.60
2017-09-10T13:21:08.101Z,21.60
2017-09-10T13:23:36.434Z,21.80
2017-09-10T13:26:04.689Z,22.20
2017-09-10T13:28:32.161Z,22.20
2017-09-10T13:30:59.653Z,22.40
2017-09-10T13:33:27.194Z,22.50
2017-09-10T13:35:54.723Z,22.30
2017-09-10T13:38:23.067Z,21.70
2017-09-10T13:40:50.573Z,21.70
2017-09-10T13:43:18.084Z,21.40
2017-09-10T13:45:45.554Z,21.30
2017-09-10T13:48:13.036Z,21.60
2017-09-10T13:50:40.502Z,21.90
2017-09-10T13:53:07.977Z,21.90
2017-09-10T13:55:35.460Z,21.70
2017-09-10T13:58:03.002Z,21.40
2017-09-10T14:00:30.559Z,21.40
2017-09-10T14:02:58.074Z,22.50
2017-09-10T14:05:25.543Z,22.90
2017-09-10T14:07:53.067Z,23.20
2017-09-10T14:10:21.333Z,23.60
2017-09-10T14:12:48.797Z,23.60
2017-09-10T14:15:16.269Z,23.50
2017-09-10T14:17:43.733Z,24.30
2017-09-10T14:20:11.210Z,24.10
2017-09-10T14:22:38.693Z,23.90
2017-09-10T14:25:06.915Z,26.90
2017-09-10T14:27:34.357Z,26.80
2017-09-10T14:30:01.898Z,26.20
2017-09-10T14:32:29.377Z,25.80
2017-09-10T14:34:56.856Z,25.20
2017-09-10T14:37:24.696Z,25.00
2017-09-10T14:39:52.202Z,24.70
2017-09-10T14:42:20.421Z,26.00
2017-09-10T14:44:47.912Z,25.90
2017-09-10T14:47:15.353Z,27.10
2017-09-10T14:49:42.840Z,26.50
2017-09-10T14:52:10.354Z,25.60
2017-09-10T14:54:37.882Z,26.80
2017-09-10T14:57:06.124Z,29.70
2017-09-10T14:59:33.581Z,29.70
2017-09-10T15:02:01.096Z,30.60
2017-09-10T15:04:28.575Z,30.00
2017-09-10T15:06:56.031Z,28.60
2017-09-10T15:09:23.506Z,27.40
2017-09-10T15:11:50.965Z,28.30
2017-09-10T15:14:18.409Z,30.40
2017-09-10T15:16:45.890Z,32.40
2017-09-10T15:19:13.374Z,33.60
2017-09-10T15:21:40.854Z,34.70
2017-09-10T15:24:09.205Z,35.00
2017-09-10T15:26:36.711Z,35.00
2017-09-10T15:29:04.243Z,35.10
2017-09-10T15:31:31.712Z,35.40
2017-09-10T15:34:00.019Z,35.10
2017-09-10T15:36:27.512Z,35.10
2017-09-10T15:38:54.957Z,35.30
2017-09-10T15:41:22.446Z,34.30
2017-09-10T15:43:49.898Z,32.60
2017-09-10T15:46:17.533Z,31.80
2017-09-10T15:48:44.979Z,30.80
2017-09-10T15:51:12.457Z,30.30
2017-09-10T15:53:40.670Z,29.10
2017-09-10T15:56:08.154Z,29.10
2017-09-10T15:58:35.677Z,28.20
2017-09-10T16:01:03.143Z,27.40
2017-09-10T16:03:31.386Z,26.10
2017-09-10T16:05:59.633Z,25.60
2017-09-10T16:08:27.126Z,25.60
2017-09-10T16:10:54.574Z,25.20
2017-09-10T16:13:22.229Z,24.80
2017-09-10T16:15:50.783Z,24.50
2017-09-10T16:18:18.272Z,24.30
2017-09-10T16:20:45.957Z,24.00
2017-09-10T16:23:14.540Z,23.50
2017-09-10T16:25:42.239Z,23.50
2017-09-10T16:28:10.173Z,23.20
2017-09-10T16:30:38.007Z,22.90
2017-09-10T16:33:05.818Z,22.60
2017-09-10T16:35:33.346Z,22.40
2017-09-10T16:38:00.852Z,22.30
2017-09-10T16:40:29.118Z,22.10
2017-09-10T16:42:56.736Z,21.90
2017-09-10T16:45:24.325Z,21.70
2017-09-10T16:47:52.701Z,21.40
2017-09-10T16:50:20.410Z,21.30
2017-09-10T16:52:48.158Z,21.20
2017-09-10T16:55:16.468Z,20.80
2017-09-10T16:57:44.303Z,20.80
2017-09-10T17:00:12.747Z,20.60
2017-09-10T17:02:41.157Z,20.40
2017-09-10T17:05:09.572Z,20.30
2017-09-10T17:07:37.096Z,20.30
2017-09-10T17:10:05.529Z,20.20
2017-09-10T17:12:33.188Z,20.10
2017-09-10T17:15:00.849Z,20.10
2017-09-10T17:17:28.414Z,20.00
2017-09-10T17:19:56.200Z,19.90
2017-09-10T17:22:23.661Z,19.80
2017-09-10T17:24:51.451Z,19.60
2017-09-10T17:27:19.314Z,19.50
2017-09-10T17:29:47.882Z,19.40
2017-09-10T17:32:15.814Z,19.30
2017-09-10T17:34:43.518Z,19.30
2017-09-10T17:37:11.813Z,19.20
2017-09-10T17:39:39.424Z,19.20
2017-09-10T17:42:07.105Z,19.20
2017-09-10T17:44:34.816Z,19.10
2017-09-10T17:47:02.277Z,19.00
2017-09-10T17:49:29.826Z,18.90
2017-09-10T17:51:58.068Z,18.80
2017-09-10T17:54:25.512Z,18.80
2017-09-10T17:56:53.000Z,18.80
2017-09-10T17:59:21.224Z,18.70
2017-09-10T18:01:48.669Z,18.70
2017-09-10T18:04:16.158Z,18.70
2017-09-10T18:06:43.605Z,18.60
2017-09-10T18:09:11.423Z,18.60
2017-09-10T18:11:39.054Z,18.50
2017-09-10T18:14:07.120Z,18.50
2017-09-10T18:16:34.602Z,18.50
2017-09-10T18:19:03.472Z,18.50
2017-09-10T18:21:31.563Z,18.40
2017-09-10T18:23:59.228Z,18.40
2017-09-10T18:26:26.704Z,18.40
2017-09-10T18:28:54.215Z,18.30
2017-09-10T18:31:21.898Z,18.30
2017-09-10T18:33:49.568Z,18.30
2017-09-10T18:36:18.086Z,18.20
2017-09-10T18:38:46.351Z,18.20
2017-09-10T18:41:13.788Z,18.10
2017-09-10T18:43:42.130Z,18.10
2017-09-10T18:46:09.619Z,18.10
2017-09-10T18:48:37.065Z,18.10
2017-09-10T18:51:04.573Z,18.10
2017-09-10T18:53:32.950Z,18.00
2017-09-10T18:56:00.502Z,18.00
2017-09-10T18:58:28.046Z,18.00
2017-09-10T19:00:56.290Z,18.00
2017-09-10T19:03:23.813Z,17.90
2017-09-10T19:05:51.437Z,17.90
2017-09-10T19:08:19.657Z,17.90
2017-09-10T19:10:47.258Z,17.80
2017-09-10T19:13:14.810Z,17.80
2017-09-10T19:15:43.158Z,17.70
2017-09-10T19:18:10.605Z,17.70
2017-09-10T19:20:38.877Z,17.70
2017-09-10T19:23:06.535Z,17.70
2017-09-10T19:25:34.052Z,17.70
2017-09-10T19:28:01.763Z,17.70
2017-09-10T19:30:29.426Z,17.70
2017-09-10T19:32:57.755Z,17.70
2017-09-10T19:35:25.310Z,17.60
2017-09-10T19:37:52.883Z,17.70
2017-09-10T19:40:20.440Z,17.60
2017-09-10T19:42:48.082Z,17.60
2017-09-10T19:45:15.616Z,17.60
2017-09-10T19:47:43.233Z,17.50
2017-09-10T19:50:10.831Z,17.50
2017-09-10T19:52:38.284Z,17.50
2017-09-10T19:55:05.754Z,17.50
2017-09-10T19:57:33.984Z,17.50
2017-09-10T20:00:01.533Z,17.40
2017-09-10T20:02:29.019Z,17.40
2017-09-10T20:04:56.546Z,17.40
2017-09-10T20:07:24.015Z,17.40
2017-09-10T20:09:51.521Z,17.30
2017-09-10T20:12:21.350Z,17.20
2017-09-10T20:14:49.940Z,17.30
2017-09-10T20:17:17.382Z,17.20
2017-09-10T20:19:44.902Z,17.30
2017-09-10T20:22:13.119Z,17.20
2017-09-10T20:24:41.481Z,17.20
2017-09-10T20:27:08.962Z,17.20
2017-09-10T20:29:36.465Z,17.20
2017-09-10T20:32:04.367Z,17.20
2017-09-10T20:34:31.830Z,17.20
2017-09-10T20:37:00.270Z,17.20
2017-09-10T20:39:27.737Z,17.20
2017-09-10T20:41:55.229Z,17.20
2017-09-10T20:44:22.677Z,17.10
2017-09-10T20:46:50.123Z,17.10
2017-09-10T20:49:17.594Z,17.10
2017-09-10T20:51:45.042Z,17.10
2017-09-10T20:54:12.538Z,17.10
2017-09-10T20:56:39.995Z,17.10
2017-09-10T20:59:07.441Z,17.10
2017-09-10T21:01:34.923Z,17.00
2017-09-10T21:04:02.398Z,17.00
2017-09-10T21:06:29.847Z,17.00
2017-09-10T21:08:57.408Z,17.00
2017-09-10T21:11:24.845Z,17.00
2017-09-10T21:13:52.297Z,17.00
2017-09-10T21:16:19.778Z,17.00
2017-09-10T21:18:47.238Z,17.00
2017-09-10T21:21:14.713Z,17.00
2017-09-10T21:23:42.162Z,17.00
2017-09-10T21:26:09.641Z,17.00
2017-09-10T21:28:37.090Z,16.90
2017-09-10T21:31:04.558Z,16.90
2017-09-10T21:33:32.048Z,16.90
2017-09-10T21:35:59.497Z,16.90
2017-09-10T21:38:26.942Z,16.80
2017-09-10T21:40:54.420Z,16.80
2017-09-10T21:43:21.883Z,16.80
2017-09-10T21:45:49.390Z,16.80
2017-09-10T21:48:16.833Z,16.80
2017-09-10T21:50:44.282Z,16.80
2017-09-10T21:53:11.764Z,16.80
2017-09-10T21:55:39.212Z,16.80
2017-09-10T21:58:06.683Z,16.70
2017-09-10T22:00:34.181Z,16.70
2017-09-10T22:03:01.685Z,16.70
2017-09-10T22:05:29.152Z,16.70
2017-09-10T22:07:56.602Z,16.70
2017-09-10T22:10:24.093Z,16.70
2017-09-10T22:12:51.558Z,16.70
2017-09-10T22:15:19.006Z,16.70
2017-09-10T22:17:46.474Z,16.70
2017-09-10T22:20:13.921Z,16.70
2017-09-10T22:22:41.398Z,16.70
2017-09-10T22:25:08.865Z,16.80
2017-09-10T22:27:36.309Z,16.80
2017-09-10T22:30:03.778Z,16.80
2017-09-10T22:32:31.262Z,16.70
2017-09-10T22:34:58.715Z,16.80
2017-09-10T22:37:26.160Z,16.80
2017-09-10T22:39:54.397Z,16.80
2017-09-10T22:42:21.854Z,16.70
2017-09-10T22:44:49.346Z,16.80
2017-09-10T22:47:16.810Z,16.70
2017-09-10T22:49:44.267Z,16.70
2017-09-10T22:52:11.745Z,16.70
2017-09-10T22:54:39.229Z,16.70
2017-09-10T22:57:06.689Z,16.70
2017-09-10T22:59:34.224Z,16.70
2017-09-10T23:02:01.708Z,16.70
2017-09-10T23:04:29.204Z,16.60
2017-09-10T23:06:56.649Z,16.60
2017-09-10T23:09:24.106Z,16.50
2017-09-10T23:11:51.583Z,16.50
2017-09-10T23:14:19.046Z,16.50
2017-09-10T23:16:46.550Z,16.40
2017-09-10T23:19:14.005Z,16.40
2017-09-10T23:21:41.469Z,16.30
2017-09-10T23:24:08.961Z,16.30
2017-09-10T23:26:37.208Z,16.20
2017-09-10T23:29:04.742Z,16.20
2017-09-10T23:31:32.238Z,16.10
2017-09-10T23:33:59.689Z,16.10
2017-09-10T23:36:27.149Z,16.10
2017-09-10T23:38:54.623Z,16.10
2017-09-10T23:41:22.086Z,16.10
2017-09-10T23:43:49.565Z,16.10
2017-09-10T23:46:17.030Z,16.10
2017-09-10T23:48:45.280Z,16.10
2017-09-10T23:51:12.778Z,16.10
2017-09-10T23:53:40.237Z,16.10
2017-09-10T23:56:07.694Z,16.10
2017-09-10T23:58:35.950Z,16.10
